createdAt,value
2019-02-16T00:00:16.850Z,91.80
2019-02-16T00:02:45.332Z,91.80
2019-02-16T00:05:13.882Z,91.80
2019-02-16T00:07:42.445Z,91.90
2019-02-16T00:10:11.060Z,91.90
2019-02-16T00:12:39.558Z,91.90
2019-02-16T00:15:08.690Z,91.80
2019-02-16T00:17:37.339Z,91.80
2019-02-16T00:20:08.492Z,91.90
2019-02-16T00:22:37.046Z,92.00
2019-02-16T00:25:06.050Z,92.00
2019-02-16T00:27:34.689Z,92.00
2019-02-16T00:30:03.580Z,92.10
2019-02-16T00:32:32.364Z,92.20
2019-02-16T00:35:00.803Z,92.30
2019-02-16T00:37:29.468Z,92.30
2019-02-16T00:39:57.996Z,92.20
2019-02-16T00:42:26.492Z,92.10
2019-02-16T00:44:54.954Z,92.20
2019-02-16T00:47:23.596Z,92.20
2019-02-16T00:50:04.821Z,92.20
2019-02-16T00:52:33.692Z,92.20
2019-02-16T00:55:02.322Z,92.30
2019-02-16T00:57:30.964Z,92.30
2019-02-16T00:59:59.558Z,92.40
2019-02-16T01:02:28.083Z,92.50
2019-02-16T01:04:56.660Z,92.60
2019-02-16T01:07:25.253Z,92.70
2019-02-16T01:09:53.821Z,92.80
2019-02-16T01:12:22.362Z,92.80
2019-02-16T01:14:51.540Z,92.90
2019-02-16T01:17:20.133Z,93.00
2019-02-16T01:19:48.701Z,92.90
2019-02-16T01:22:17.323Z,92.90
2019-02-16T01:24:45.974Z,92.70
2019-02-16T01:27:14.476Z,92.70
2019-02-16T01:29:43.123Z,92.60
2019-02-16T01:32:11.754Z,92.60
2019-02-16T01:34:40.219Z,92.20
2019-02-16T01:37:08.974Z,92.50
2019-02-16T01:39:37.483Z,92.60
2019-02-16T01:42:06.075Z,92.70
2019-02-16T01:44:34.588Z,92.60
2019-02-16T01:47:03.219Z,92.60
2019-02-16T01:49:31.709Z,92.50
2019-02-16T01:52:00.348Z,92.50
2019-02-16T01:54:28.948Z,92.80
2019-02-16T01:56:57.516Z,92.80
2019-02-16T01:59:26.171Z,92.80
2019-02-16T02:01:54.802Z,92.90
2019-02-16T02:04:23.301Z,93.00
2019-02-16T02:06:51.940Z,93.00
2019-02-16T02:09:20.452Z,93.10
2019-02-16T02:11:49.035Z,92.80
2019-02-16T02:14:17.603Z,92.90
2019-02-16T02:16:46.196Z,92.90
2019-02-16T02:19:14.634Z,93.20
2019-02-16T02:21:43.260Z,92.80
2019-02-16T02:24:11.812Z,92.80
2019-02-16T02:26:40.445Z,92.80
2019-02-16T02:29:09.050Z,92.80
2019-02-16T02:31:37.748Z,92.80
2019-02-16T02:34:06.212Z,92.90
2019-02-16T02:36:34.921Z,92.80
2019-02-16T02:39:04.170Z,92.80
2019-02-16T02:41:32.731Z,92.80
2019-02-16T02:44:01.341Z,92.90
2019-02-16T02:46:29.987Z,92.90
2019-02-16T02:48:58.482Z,92.90
2019-02-16T02:51:27.148Z,92.90
2019-02-16T02:53:55.725Z,93.00
2019-02-16T02:56:24.331Z,93.10
2019-02-16T02:58:52.922Z,93.00
2019-02-16T03:01:21.500Z,92.90
2019-02-16T03:03:50.092Z,92.90
2019-02-16T03:06:18.700Z,93.00
2019-02-16T03:08:47.334Z,93.10
2019-02-16T03:11:15.932Z,92.90
2019-02-16T03:13:44.492Z,93.00
2019-02-16T03:16:12.980Z,92.90
2019-02-16T03:18:41.452Z,92.90
2019-02-16T03:21:10.004Z,92.90
2019-02-16T03:23:38.420Z,93.10
2019-02-16T03:26:25.307Z,93.20
2019-02-16T03:28:59.747Z,93.30
2019-02-16T03:31:52.453Z,93.20
2019-02-16T03:34:27.092Z,93.30
2019-02-16T03:37:32.334Z,93.30
2019-02-16T03:40:00.916Z,93.40
2019-02-16T03:42:29.405Z,93.30
2019-02-16T03:44:58.028Z,93.30
2019-02-16T03:47:26.463Z,93.30
2019-02-16T03:49:54.963Z,93.10
2019-02-16T03:52:23.580Z,93.20
2019-02-16T03:54:52.085Z,93.20
2019-02-16T03:57:20.490Z,93.20
2019-02-16T03:59:49.045Z,93.30
2019-02-16T04:02:17.612Z,93.30
2019-02-16T04:04:46.108Z,93.40
2019-02-16T04:07:14.691Z,93.50
2019-02-16T04:09:43.177Z,93.60
2019-02-16T04:12:11.741Z,93.60
2019-02-16T04:14:40.308Z,93.50
2019-02-16T04:17:08.802Z,93.40
2019-02-16T04:19:37.288Z,93.70
2019-02-16T04:22:05.911Z,93.50
2019-02-16T04:24:34.422Z,93.40
2019-02-16T04:27:02.891Z,93.50
2019-02-16T04:29:31.457Z,93.50
2019-02-16T04:31:59.949Z,93.50
2019-02-16T04:34:28.590Z,93.60
2019-02-16T04:36:57.179Z,93.60
2019-02-16T04:39:25.755Z,93.60
2019-02-16T04:41:54.261Z,93.60
2019-02-16T04:44:22.797Z,93.60
2019-02-16T04:46:51.309Z,93.60
2019-02-16T04:49:19.796Z,93.70
2019-02-16T04:51:48.366Z,93.70
2019-02-16T04:54:16.924Z,93.70
2019-02-16T04:56:45.386Z,93.60
2019-02-16T04:59:14.004Z,93.70
2019-02-16T05:01:42.452Z,93.80
2019-02-16T05:04:10.956Z,93.90
2019-02-16T05:06:39.486Z,93.80
2019-02-16T05:09:08.011Z,93.80
2019-02-16T05:11:36.525Z,93.90
2019-02-16T05:14:05.174Z,93.90
2019-02-16T05:16:33.694Z,94.00
2019-02-16T05:19:02.067Z,94.10
2019-02-16T05:21:30.692Z,94.10
2019-02-16T05:23:59.284Z,93.90
2019-02-16T05:26:27.805Z,93.90
2019-02-16T05:28:56.330Z,93.90
2019-02-16T05:31:24.908Z,93.90
2019-02-16T05:33:53.422Z,93.80
2019-02-16T05:36:22.068Z,93.90
2019-02-16T05:38:50.596Z,94.00
2019-02-16T05:41:19.189Z,94.00
2019-02-16T05:43:48.192Z,93.90
2019-02-16T05:46:16.668Z,93.90
2019-02-16T05:48:45.131Z,94.00
2019-02-16T05:51:13.758Z,94.10
2019-02-16T05:53:42.404Z,94.00
2019-02-16T05:56:10.973Z,94.00
2019-02-16T05:58:39.570Z,94.20
2019-02-16T06:01:08.150Z,94.20
2019-02-16T06:03:36.703Z,94.10
2019-02-16T06:06:05.185Z,94.10
2019-02-16T06:08:33.675Z,94.00
2019-02-16T06:11:02.141Z,93.80
2019-02-16T06:13:30.685Z,93.90
2019-02-16T06:15:59.187Z,93.90
2019-02-16T06:18:27.699Z,93.80
2019-02-16T06:20:56.323Z,94.00
2019-02-16T06:23:24.829Z,94.20
2019-02-16T06:25:53.402Z,94.20
2019-02-16T06:28:21.884Z,94.10
2019-02-16T06:30:50.407Z,94.00
2019-02-16T06:33:18.972Z,94.10
2019-02-16T06:35:49.106Z,94.20
2019-02-16T06:38:17.637Z,94.30
2019-02-16T06:40:46.204Z,94.30
2019-02-16T06:43:14.788Z,94.30
2019-02-16T06:45:43.296Z,94.40
2019-02-16T06:48:11.867Z,94.50
2019-02-16T06:50:40.508Z,94.50
2019-02-16T06:53:13.190Z,94.60
2019-02-16T06:55:40.970Z,95.00
2019-02-16T06:58:09.460Z,94.70
2019-02-16T07:00:38.308Z,94.80
2019-02-16T07:03:07.004Z,94.80
2019-02-16T07:05:35.563Z,94.70
2019-02-16T07:08:04.372Z,94.60
2019-02-16T07:10:33.021Z,94.60
2019-02-16T07:13:01.565Z,94.80
2019-02-16T07:15:30.098Z,94.70
2019-02-16T07:18:00.190Z,94.80
2019-02-16T07:20:28.861Z,94.80
2019-02-16T07:22:57.620Z,94.90
2019-02-16T07:25:26.058Z,94.90
2019-02-16T07:27:55.980Z,94.90
2019-02-16T07:30:24.627Z,95.00
2019-02-16T07:32:53.211Z,95.10
2019-02-16T07:35:21.844Z,95.20
2019-02-16T07:37:50.285Z,95.30
2019-02-16T07:40:18.820Z,95.20
2019-02-16T07:42:51.716Z,95.60
2019-02-16T07:45:36.354Z,95.70
2019-02-16T07:48:15.373Z,95.70
2019-02-16T07:50:54.637Z,95.50
2019-02-16T07:53:31.352Z,95.20
2019-02-16T07:56:10.413Z,95.10
2019-02-16T07:58:40.676Z,95.20
2019-02-16T08:01:27.124Z,95.40
2019-02-16T08:04:00.436Z,95.30
2019-02-16T08:06:36.643Z,95.20
2019-02-16T08:09:06.909Z,95.10
2019-02-16T08:11:37.142Z,95.10
2019-02-16T08:14:16.212Z,94.90
2019-02-16T08:16:58.522Z,94.90
2019-02-16T08:19:44.805Z,95.00
2019-02-16T08:22:15.047Z,94.90
2019-02-16T08:25:05.279Z,94.90
2019-02-16T08:27:37.995Z,95.20
2019-02-16T08:30:08.892Z,95.70
2019-02-16T08:32:41.796Z,95.70
2019-02-16T08:35:14.524Z,95.80
2019-02-16T08:37:53.987Z,95.60
2019-02-16T08:40:24.260Z,95.20
2019-02-16T08:42:57.100Z,95.30
2019-02-16T08:45:33.380Z,94.70
2019-02-16T08:48:09.314Z,94.60
2019-02-16T08:50:39.652Z,94.40
2019-02-16T08:53:09.796Z,94.10
2019-02-16T08:55:39.939Z,93.90
2019-02-16T08:58:15.908Z,93.40
2019-02-16T09:00:49.002Z,92.40
2019-02-16T09:03:35.597Z,91.40
2019-02-16T09:06:08.509Z,91.20
2019-02-16T09:08:39.020Z,90.70
2019-02-16T09:11:09.196Z,90.90
2019-02-16T09:13:45.267Z,90.40
2019-02-16T09:16:21.428Z,90.00
2019-02-16T09:18:51.588Z,88.40
2019-02-16T09:21:22.138Z,87.30
2019-02-16T09:23:59.466Z,87.10
2019-02-16T09:26:35.438Z,86.50
2019-02-16T09:29:05.635Z,86.50
2019-02-16T09:31:38.579Z,84.20
2019-02-16T09:34:17.644Z,83.40
2019-02-16T09:37:02.932Z,82.70
2019-02-16T09:39:33.076Z,81.90
2019-02-16T09:42:12.316Z,81.60
2019-02-16T09:44:45.748Z,80.80
2019-02-16T09:47:15.924Z,78.80
2019-02-16T09:49:46.132Z,78.00
2019-02-16T09:52:22.171Z,76.90
2019-02-16T09:54:58.326Z,75.40
2019-02-16T09:57:34.214Z,74.90
2019-02-16T10:00:04.476Z,74.70
2019-02-16T10:02:37.442Z,72.50
2019-02-16T10:05:13.446Z,70.80
2019-02-16T10:08:01.855Z,72.00
2019-02-16T10:10:47.164Z,69.90
2019-02-16T10:13:17.339Z,69.70
2019-02-16T10:15:47.628Z,67.70
2019-02-16T10:18:33.270Z,67.70
2019-02-16T10:21:06.284Z,66.00
2019-02-16T10:23:54.300Z,65.80
2019-02-16T10:26:42.620Z,64.50
2019-02-16T10:29:12.916Z,61.80
2019-02-16T10:31:43.161Z,60.00
2019-02-16T10:34:23.117Z,60.40
2019-02-16T10:36:56.070Z,59.90
2019-02-16T10:39:26.317Z,58.00
2019-02-16T10:41:59.347Z,57.00
2019-02-16T10:44:35.312Z,58.30
2019-02-16T10:47:05.517Z,58.80
2019-02-16T10:49:52.782Z,56.90
2019-02-16T10:52:23.083Z,55.90
2019-02-16T10:54:53.268Z,53.20
2019-02-16T10:57:29.582Z,53.20
2019-02-16T10:59:59.806Z,52.60
2019-02-16T11:02:39.364Z,50.90
2019-02-16T11:05:09.516Z,50.90
2019-02-16T11:07:42.185Z,49.50
2019-02-16T11:10:21.263Z,49.00
2019-02-16T11:12:57.339Z,48.90
2019-02-16T11:15:33.714Z,49.60
2019-02-16T11:18:09.727Z,47.70
2019-02-16T11:20:55.895Z,45.80
2019-02-16T11:23:41.174Z,45.00
2019-02-16T11:26:11.428Z,45.50
2019-02-16T11:28:57.942Z,45.80
2019-02-16T11:31:28.156Z,45.10
2019-02-16T11:33:58.380Z,45.10
2019-02-16T11:36:34.646Z,45.20
2019-02-16T11:39:07.564Z,44.80
2019-02-16T11:41:56.087Z,44.30
2019-02-16T11:44:26.291Z,45.90
2019-02-16T11:47:02.059Z,44.50
2019-02-16T11:49:32.239Z,46.00
2019-02-16T11:52:02.461Z,43.40
2019-02-16T11:57:23.468Z,43.70
2019-02-16T12:00:10.260Z,43.40
2019-02-16T12:02:46.515Z,44.00
2019-02-16T12:05:28.427Z,43.50
2019-02-16T12:08:01.445Z,43.80
2019-02-16T12:10:31.651Z,44.10
2019-02-16T12:13:04.564Z,43.40
2019-02-16T12:15:50.135Z,43.30
2019-02-16T12:18:29.617Z,43.70
2019-02-16T12:21:02.662Z,44.20
2019-02-16T12:23:35.675Z,44.20
2019-02-16T12:26:08.932Z,44.40
2019-02-16T12:28:39.980Z,44.20
2019-02-16T12:31:12.948Z,43.40
2019-02-16T12:33:43.107Z,43.50
2019-02-16T12:36:25.173Z,42.40
2019-02-16T12:39:04.325Z,44.00
2019-02-16T12:41:33.188Z,42.40
2019-02-16T12:44:09.518Z,41.80
2019-02-16T12:46:39.733Z,42.70
2019-02-16T12:49:09.804Z,41.10
2019-02-16T12:51:48.734Z,42.30
2019-02-16T12:54:21.468Z,42.30
2019-02-16T12:56:51.686Z,43.00
2019-02-16T12:59:39.749Z,42.50
2019-02-16T13:02:12.404Z,42.50
2019-02-16T13:04:59.103Z,43.30
2019-02-16T13:07:29.294Z,43.00
2019-02-16T13:09:59.685Z,42.30
2019-02-16T13:12:35.824Z,42.80
2019-02-16T13:15:23.140Z,42.30
2019-02-16T13:17:55.852Z,42.40
2019-02-16T13:20:34.836Z,42.00
2019-02-16T13:23:05.089Z,41.60
2019-02-16T13:25:41.309Z,41.40
2019-02-16T13:28:23.627Z,42.40
2019-02-16T13:31:09.948Z,40.30
2019-02-16T13:33:52.205Z,39.30
2019-02-16T13:36:24.823Z,39.80
2019-02-16T13:39:11.523Z,39.90
2019-02-16T13:41:44.542Z,38.60
2019-02-16T13:44:14.636Z,39.50
2019-02-16T13:46:44.732Z,39.60
2019-02-16T13:49:17.338Z,39.60
2019-02-16T13:51:51.900Z,39.30
2019-02-16T13:54:23.084Z,39.80
2019-02-16T13:57:09.525Z,39.30
2019-02-16T13:59:39.746Z,40.10
2019-02-16T14:02:12.645Z,40.20
2019-02-16T14:04:54.924Z,40.00
2019-02-16T14:07:27.644Z,40.90
2019-02-16T14:09:57.723Z,40.30
2019-02-16T14:12:40.557Z,41.00
2019-02-16T14:15:10.788Z,40.90
2019-02-16T14:17:45.210Z,40.10
2019-02-16T14:20:13.834Z,39.80
2019-02-16T14:22:42.395Z,39.80
2019-02-16T14:25:12.710Z,40.10
2019-02-16T14:27:41.653Z,39.60
2019-02-16T14:30:12.122Z,38.20
2019-02-16T14:32:40.792Z,38.60
2019-02-16T14:35:09.435Z,38.60
2019-02-16T14:37:42.512Z,40.00
2019-02-16T14:40:10.980Z,38.80
2019-02-16T14:42:39.506Z,39.00
2019-02-16T14:45:10.900Z,38.80
2019-02-16T14:47:39.701Z,38.10
2019-02-16T14:50:09.980Z,39.00
2019-02-16T14:52:38.589Z,39.80
2019-02-16T14:55:15.951Z,39.20
2019-02-16T14:57:44.597Z,39.60
2019-02-16T15:00:13.475Z,39.90
2019-02-16T15:02:42.203Z,39.60
2019-02-16T15:05:10.764Z,39.80
2019-02-16T15:07:40.548Z,40.10
2019-02-16T15:10:13.966Z,39.80
2019-02-16T15:12:42.602Z,39.90
2019-02-16T15:15:11.678Z,40.40
2019-02-16T15:17:40.332Z,39.90
2019-02-16T15:20:14.204Z,40.30
2019-02-16T15:22:42.610Z,41.40
2019-02-16T15:25:12.054Z,41.70
2019-02-16T15:27:40.936Z,42.20
2019-02-16T15:30:14.209Z,42.20
2019-02-16T15:32:42.289Z,42.90
2019-02-16T15:35:11.581Z,43.60
2019-02-16T15:37:40.222Z,44.70
2019-02-16T15:40:10.327Z,46.60
2019-02-16T15:42:38.914Z,46.20
2019-02-16T15:45:12.363Z,47.60
2019-02-16T15:47:40.901Z,48.40
2019-02-16T15:50:11.443Z,48.80
2019-02-16T15:52:40.044Z,50.00
2019-02-16T15:55:10.828Z,50.50
2019-02-16T15:57:39.399Z,51.30
2019-02-16T16:00:12.549Z,51.60
2019-02-16T16:02:41.171Z,52.60
2019-02-16T16:05:09.687Z,52.70
2019-02-16T16:07:39.181Z,53.70
2019-02-16T16:10:12.386Z,54.00
2019-02-16T16:12:42.461Z,55.30
2019-02-16T16:15:24.846Z,55.00
2019-02-16T16:18:00.987Z,56.00
2019-02-16T16:20:49.460Z,56.80
2019-02-16T16:23:25.196Z,56.80
2019-02-16T16:25:55.484Z,58.00
2019-02-16T16:28:34.612Z,58.30
2019-02-16T16:31:11.600Z,58.30
2019-02-16T16:33:41.908Z,58.60
2019-02-16T16:36:14.956Z,59.20
2019-02-16T16:38:45.036Z,58.90
2019-02-16T16:41:21.226Z,58.40
2019-02-16T16:43:57.100Z,59.40
2019-02-16T16:46:39.652Z,60.00
2019-02-16T16:49:20.012Z,59.90
2019-02-16T16:52:06.235Z,60.70
2019-02-16T16:54:48.636Z,61.40
2019-02-16T16:57:24.674Z,62.60
2019-02-16T16:59:57.957Z,63.20
2019-02-16T17:02:28.025Z,63.90
2019-02-16T17:05:04.036Z,64.30
2019-02-16T17:07:49.190Z,64.80
2019-02-16T17:10:37.592Z,65.40
2019-02-16T17:13:13.378Z,66.90
2019-02-16T17:15:43.474Z,67.70
2019-02-16T17:18:25.956Z,68.00
2019-02-16T17:20:56.133Z,68.20
2019-02-16T17:23:32.348Z,68.40
2019-02-16T17:26:08.538Z,68.40
2019-02-16T17:28:47.707Z,68.20
2019-02-16T17:31:23.780Z,68.90
2019-02-16T17:33:54.092Z,69.30
2019-02-16T17:36:24.186Z,69.40
2019-02-16T17:38:57.734Z,70.00
2019-02-16T17:41:36.908Z,70.50
2019-02-16T17:44:10.013Z,71.00
2019-02-16T17:46:42.722Z,71.30
2019-02-16T17:49:18.813Z,71.40
2019-02-16T17:51:49.092Z,71.90
2019-02-16T17:54:19.260Z,72.30
2019-02-16T17:57:01.610Z,72.20
2019-02-16T17:59:31.757Z,72.10
2019-02-16T18:02:17.161Z,72.20
2019-02-16T18:04:47.292Z,72.90
2019-02-16T18:07:17.378Z,73.40
2019-02-16T18:09:47.677Z,73.60
2019-02-16T18:12:32.940Z,73.80
2019-02-16T18:15:12.116Z,73.90
2019-02-16T18:17:48.421Z,74.30
2019-02-16T18:20:30.621Z,74.50
2019-02-16T18:23:00.779Z,74.90
2019-02-16T18:25:32.551Z,75.70
2019-02-16T18:28:14.503Z,75.80
2019-02-16T18:30:56.597Z,75.80
2019-02-16T18:33:29.768Z,75.80
2019-02-16T18:36:02.742Z,76.10
2019-02-16T18:38:49.364Z,76.50
2019-02-16T18:41:28.772Z,77.00
2019-02-16T18:44:11.074Z,77.50
2019-02-16T18:46:44.151Z,77.90
2019-02-16T18:49:14.355Z,77.50
2019-02-16T18:51:50.774Z,78.20
2019-02-16T18:54:21.009Z,78.20
2019-02-16T18:57:06.426Z,78.50
2019-02-16T18:59:29.151Z,78.80
2019-02-16T19:02:05.232Z,79.40
2019-02-16T19:04:44.020Z,79.40
2019-02-16T19:07:14.484Z,79.50
2019-02-16T19:10:02.677Z,79.70
2019-02-16T19:12:32.900Z,79.90
2019-02-16T19:15:03.089Z,79.90
2019-02-16T19:17:36.418Z,79.60
2019-02-16T19:20:18.149Z,79.90
2019-02-16T19:23:00.151Z,80.00
2019-02-16T19:25:30.310Z,80.00
2019-02-16T19:28:09.492Z,80.50
2019-02-16T19:30:45.677Z,80.50
2019-02-16T19:33:18.683Z,80.40
2019-02-16T19:35:58.158Z,80.60
2019-02-16T19:38:43.236Z,80.00
2019-02-16T19:41:19.231Z,79.60
2019-02-16T19:43:49.492Z,79.10
2019-02-16T19:46:34.965Z,79.30
2019-02-16T19:49:14.267Z,80.00
2019-02-16T19:51:46.909Z,79.40
2019-02-16T19:54:26.388Z,79.60
2019-02-16T19:57:05.389Z,80.00
2019-02-16T19:59:35.572Z,80.60
2019-02-16T20:02:05.800Z,80.60
2019-02-16T20:04:35.955Z,81.00
2019-02-16T20:07:24.340Z,81.30
2019-02-16T20:09:57.460Z,81.30
2019-02-16T20:12:30.347Z,81.00
2019-02-16T20:15:02.996Z,81.40
2019-02-16T20:17:36.309Z,81.30
2019-02-16T20:20:08.716Z,81.70
2019-02-16T20:22:54.008Z,81.70
2019-02-16T20:25:24.149Z,81.70
2019-02-16T20:28:13.309Z,81.70
2019-02-16T20:30:46.557Z,81.80
2019-02-16T20:33:19.749Z,82.00
2019-02-16T20:36:02.557Z,81.80
2019-02-16T20:38:49.331Z,81.90
2019-02-16T20:41:25.442Z,82.10
2019-02-16T20:44:10.603Z,82.10
2019-02-16T20:46:46.524Z,82.20
2019-02-16T20:49:21.690Z,82.60
2019-02-16T20:52:03.786Z,82.60
2019-02-16T20:54:50.837Z,83.10
2019-02-16T20:57:23.867Z,83.30
2019-02-16T20:59:56.586Z,83.60
2019-02-16T21:02:29.731Z,83.60
2019-02-16T21:05:07.899Z,83.70
2019-02-16T21:07:54.130Z,83.70
2019-02-16T21:10:36.379Z,83.60
2019-02-16T21:13:06.514Z,84.20
2019-02-16T21:15:39.075Z,84.30
2019-02-16T21:18:21.378Z,83.10
2019-02-16T21:20:51.539Z,83.60
2019-02-16T21:23:21.610Z,83.60
2019-02-16T21:26:03.994Z,84.00
2019-02-16T21:28:43.187Z,84.30
2019-02-16T21:31:18.214Z,84.40
2019-02-16T21:33:48.973Z,84.80
2019-02-16T21:36:25.163Z,85.00
2019-02-16T21:39:02.840Z,84.90
2019-02-16T21:41:27.132Z,84.90
2019-02-16T21:44:15.531Z,84.80
2019-02-16T21:46:48.635Z,85.00
2019-02-16T21:49:33.803Z,85.10
2019-02-16T21:52:20.323Z,85.20
2019-02-16T21:54:59.474Z,85.50
2019-02-16T21:57:32.651Z,85.40
2019-02-16T22:00:19.290Z,85.40
2019-02-16T22:02:49.443Z,85.50
2019-02-16T22:05:19.602Z,85.60
2019-02-16T22:07:49.810Z,85.50
2019-02-16T22:10:19.971Z,85.60
2019-02-16T22:13:02.186Z,85.90
2019-02-16T22:15:31.803Z,86.00
2019-02-16T22:18:00.309Z,85.70
2019-02-16T22:20:28.971Z,85.70
2019-02-16T22:22:57.650Z,86.20
2019-02-16T22:25:26.323Z,85.70
2019-02-16T22:27:55.370Z,86.10
2019-02-16T22:30:23.946Z,86.10
2019-02-16T22:32:52.626Z,86.10
2019-02-16T22:35:21.274Z,85.80
2019-02-16T22:37:49.819Z,86.60
2019-02-16T22:40:18.298Z,86.90
2019-02-16T22:42:47.867Z,87.10
2019-02-16T22:45:16.443Z,87.10
2019-02-16T22:47:45.018Z,87.20
2019-02-16T22:50:13.762Z,87.10
2019-02-16T22:52:42.410Z,87.10
2019-02-16T22:55:10.969Z,86.90
2019-02-16T22:57:39.610Z,87.10
2019-02-16T23:00:11.018Z,87.10
2019-02-16T23:02:39.618Z,87.10
2019-02-16T23:05:08.256Z,87.20
2019-02-16T23:07:36.884Z,87.10
2019-02-16T23:10:09.234Z,87.30
2019-02-16T23:12:37.890Z,87.40
2019-02-16T23:15:09.058Z,87.50
2019-02-16T23:17:37.626Z,87.60
2019-02-16T23:20:09.442Z,87.90
2019-02-16T23:22:38.095Z,88.00
2019-02-16T23:25:08.249Z,88.00
2019-02-16T23:27:36.922Z,87.90
2019-02-16T23:30:10.627Z,88.00
2019-02-16T23:32:39.106Z,87.80
2019-02-16T23:35:08.570Z,87.70
2019-02-16T23:37:37.218Z,87.80
2019-02-16T23:40:09.089Z,87.90
2019-02-16T23:42:37.747Z,87.90
2019-02-16T23:45:08.938Z,88.30
2019-02-16T23:47:37.523Z,88.50
2019-02-16T23:50:10.514Z,87.70
2019-02-16T23:52:40.010Z,88.70
2019-02-16T23:55:10.275Z,88.60
2019-02-16T23:57:38.860Z,88.60
